Terminal Aerodrome Forecast
Issued by NWS Binghamton, NY

Home | Current Version | Previous Version | Text Only | Print | Product List | Glossary On
Versions: 1 2 3 4 5 6 7 8 9 10 11 12 13 14 15 16 17 18 19
000
FTUS41 KBGM 301100
TAFAVP
TAF
KAVP 301123Z 3012/3112 19015G25KT P6SM BKN040 OVC070
      TEMPO 3012/3015 OVC028
     FM301800 28017G28KT P6SM OVC050
     FM310000 28008KT P6SM SCT050=

USA.gov is the U.S. government's official web portal to all federal, state and local government web resources and services.